Aviation Digital Data Service (ADDS)

Output produced by METARs form (1945 UTC 13 November 2019)
found at http://www.aviationweather.gov/metar/data/
 
Forecast for: ZWWW (URUM-QI/DIWOPU , CN)
Text: TAF ZWWW 131505Z 1318/1418 18003MPS CAVOK TX05/1409Z TNM03/23Z
Forecast period: 1800 UTC 13 November 2019 to 0300 UTC 14 November 2019
Forecast type: FROM: standard forecast or significant change
Winds: from the S (180 degrees) at 7 MPH (6 knots; 3.1 m/s)
Visibility: 6 or more miles 10+ km)
Ceiling: unknown
Clouds: missing
Weather: no significant weather forecast for this period
Text: BECMG 1403/1404 36003MPS
Forecast period: 0300 to 1200 UTC 14 November 2019
Forecast type: BECOMING: Conditions expected to become as follows by 0400 UTC 14 November 2019
Winds: from the N (360 degrees) at 7 MPH (6 knots; 3.1 m/s)
Visibility: 6 or more miles 10+ km)
Ceiling: unknown
Clouds: missing
Weather: no significant weather forecast for this period
Text: BECMG 1412/1414 18003MPS
Forecast period: 1200 to 1800 UTC 14 November 2019
Forecast type: BECOMING: Conditions expected to become as follows by 1400 UTC 14 November 2019
Winds: from the S (180 degrees) at 7 MPH (6 knots; 3.1 m/s)
Visibility: 6 or more miles 10+ km)
Ceiling: unknown
Clouds: missing
Weather: no significant weather forecast for this period